createdAt,value
2022-12-05T00:00:40.322Z,100540.59
2022-12-05T00:03:28.048Z,100540.44
2022-12-05T00:06:15.181Z,100538.75
2022-12-05T00:09:05.254Z,100541.28
2022-12-05T00:11:52.366Z,100539.44
2022-12-05T00:14:39.791Z,100535.50
2022-12-05T00:17:26.623Z,100537.47
2022-12-05T00:20:13.815Z,100540.62
2022-12-05T00:23:01.146Z,100541.63
2022-12-05T00:25:49.698Z,100533.47
2022-12-05T00:28:37.065Z,100531.56
2022-12-05T00:31:25.481Z,100548.28
2022-12-05T00:34:12.422Z,100540.53
2022-12-05T00:36:59.727Z,100537.81
2022-12-05T00:39:46.658Z,100536.38
2022-12-05T00:42:35.525Z,100531.78
2022-12-05T00:45:23.310Z,100537.28
2022-12-05T00:48:10.272Z,100536.75
2022-12-05T00:51:02.019Z,100542.88
2022-12-05T00:53:49.849Z,100541.19
2022-12-05T00:56:40.283Z,100546.97
2022-12-05T00:59:28.696Z,100547.69
2022-12-05T01:02:15.597Z,100544.00
2022-12-05T01:05:02.902Z,100544.88
2022-12-05T01:07:49.790Z,100537.94
2022-12-05T01:10:37.263Z,100545.69
2022-12-05T01:13:25.598Z,100543.16
2022-12-05T01:16:17.070Z,100536.69
2022-12-05T01:19:07.825Z,100540.34
2022-12-05T01:21:56.148Z,100542.22
2022-12-05T01:24:43.387Z,100547.38
2022-12-05T01:27:30.790Z,100545.53
2022-12-05T01:30:17.949Z,100548.94
2022-12-05T01:33:07.051Z,100545.69
2022-12-05T01:35:54.219Z,100552.66
2022-12-05T01:38:42.711Z,100548.94
2022-12-05T01:41:32.045Z,100550.41
2022-12-05T01:44:59.462Z,100561.88
2022-12-05T01:47:46.511Z,100559.75
2022-12-05T01:50:36.200Z,100557.28
2022-12-05T01:53:23.574Z,100562.47
2022-12-05T01:56:11.077Z,100558.91
2022-12-05T01:58:57.989Z,100548.16
2022-12-05T02:01:45.489Z,100559.47
2022-12-05T02:04:36.611Z,100558.44
2022-12-05T02:07:24.742Z,100555.00
2022-12-05T02:10:12.455Z,100548.87
2022-12-05T02:13:09.757Z,100548.03
2022-12-05T02:16:04.486Z,100547.94
2022-12-05T02:19:05.217Z,100542.59
2022-12-05T02:22:38.175Z,100549.59
2022-12-05T02:26:01.025Z,100539.66
2022-12-05T02:29:12.370Z,100549.31
2022-12-05T02:32:08.404Z,100545.75
2022-12-05T02:35:00.951Z,100551.16
2022-12-05T02:37:55.330Z,100546.72
2022-12-05T02:40:47.631Z,100543.03
2022-12-05T02:43:42.806Z,100547.31
2022-12-05T02:46:32.207Z,100551.75
2022-12-05T02:49:24.342Z,100545.59
2022-12-05T02:52:14.282Z,100547.38
2022-12-05T02:55:01.277Z,100545.59
2022-12-05T02:57:55.868Z,100541.97
2022-12-05T03:00:47.826Z,100545.47
2022-12-05T03:03:36.046Z,100536.59
2022-12-05T03:06:29.424Z,100535.72
2022-12-05T03:09:20.565Z,100538.53
2022-12-05T03:12:11.809Z,100541.19
2022-12-05T03:15:02.364Z,100538.78
2022-12-05T03:17:57.069Z,100541.41
2022-12-05T03:20:48.783Z,100534.34
2022-12-05T03:23:41.092Z,100546.69
2022-12-05T03:26:39.056Z,100540.47
2022-12-05T03:29:30.676Z,100538.69
2022-12-05T03:32:24.559Z,100540.59
2022-12-05T03:35:19.034Z,100548.59
2022-12-05T03:38:12.696Z,100553.00
2022-12-05T03:41:09.948Z,100544.31
2022-12-05T03:44:02.400Z,100551.44
2022-12-05T03:46:55.359Z,100549.81
2022-12-05T03:49:46.419Z,100550.59
2022-12-05T03:52:56.971Z,100546.59
2022-12-05T03:55:46.682Z,100544.94
2022-12-05T03:58:38.944Z,100551.00
2022-12-05T04:01:30.619Z,100546.59
2022-12-05T04:04:22.691Z,100549.56
2022-12-05T04:07:10.549Z,100551.25
2022-12-05T04:10:00.861Z,100550.03
2022-12-05T04:12:50.065Z,100545.53
2022-12-05T04:15:52.679Z,100550.81
2022-12-05T04:18:44.880Z,100547.16
2022-12-05T04:21:40.494Z,100552.44
2022-12-05T04:24:49.983Z,100548.91
2022-12-05T04:27:43.091Z,100548.44
2022-12-05T04:30:36.884Z,100554.53
2022-12-05T04:33:33.303Z,100559.22
2022-12-05T04:36:23.713Z,100562.44
2022-12-05T04:39:18.398Z,100562.56
2022-12-05T04:42:09.806Z,100561.00
2022-12-05T04:45:01.611Z,100563.72
2022-12-05T04:47:55.521Z,100560.56
2022-12-05T04:50:46.898Z,100563.72
2022-12-05T04:53:34.765Z,100561.78
2022-12-05T04:56:23.422Z,100570.69
2022-12-05T04:59:10.903Z,100571.63
2022-12-05T05:02:04.243Z,100569.91
2022-12-05T05:04:53.591Z,100578.59
2022-12-05T05:07:46.902Z,100584.03
2022-12-05T05:10:40.612Z,100582.63
2022-12-05T05:13:27.509Z,100581.78
2022-12-05T05:16:18.895Z,100595.34
2022-12-05T05:19:07.171Z,100582.81
2022-12-05T05:21:54.288Z,100589.78
2022-12-05T05:24:42.815Z,100588.88
2022-12-05T05:27:29.833Z,100591.78
2022-12-05T05:30:17.470Z,100594.13
2022-12-05T05:33:03.965Z,100598.75
2022-12-05T05:35:51.106Z,100596.13
2022-12-05T05:38:38.758Z,100600.19
2022-12-05T05:41:29.263Z,100600.91
2022-12-05T05:44:16.461Z,100595.72
2022-12-05T05:47:03.219Z,100596.50
2022-12-05T05:49:49.983Z,100601.06
2022-12-05T05:52:37.740Z,100597.38
2022-12-05T05:55:24.639Z,100600.72
2022-12-05T05:58:13.316Z,100600.84
2022-12-05T06:01:05.217Z,100606.25
2022-12-05T06:03:52.796Z,100604.41
2022-12-05T06:06:39.955Z,100606.97
2022-12-05T06:09:26.816Z,100608.75
2022-12-05T06:12:13.616Z,100603.50
2022-12-05T06:15:01.971Z,100602.56
2022-12-05T06:17:48.879Z,100605.47
2022-12-05T06:20:36.282Z,100609.03
2022-12-05T06:23:23.823Z,100610.53
2022-12-05T06:26:14.937Z,100619.28
2022-12-05T06:29:01.833Z,100619.06
2022-12-05T06:31:50.805Z,100618.00
2022-12-05T06:34:37.789Z,100626.81
2022-12-05T06:37:24.883Z,100630.37
2022-12-05T06:40:12.846Z,100628.13
2022-12-05T06:43:00.161Z,100627.13
2022-12-05T06:45:47.981Z,100626.34
2022-12-05T06:48:36.945Z,100637.56
2022-12-05T06:51:24.430Z,100632.16
2022-12-05T06:54:12.663Z,100637.22
2022-12-05T06:56:59.787Z,100636.31
2022-12-05T06:59:47.103Z,100637.19
2022-12-05T07:02:33.056Z,100639.69
2022-12-05T07:05:21.790Z,100643.03
2022-12-05T07:08:08.585Z,100637.66
2022-12-05T07:10:55.984Z,100634.91
2022-12-05T07:13:42.740Z,100633.25
2022-12-05T07:16:30.312Z,100635.88
2022-12-05T07:19:17.005Z,100642.94
2022-12-05T07:22:09.363Z,100629.00
2022-12-05T07:24:58.653Z,100636.91
2022-12-05T07:27:46.000Z,100634.34
2022-12-05T07:30:32.804Z,100633.50
2022-12-05T07:33:19.913Z,100642.19
2022-12-05T07:36:09.063Z,100637.97
2022-12-05T07:38:59.460Z,100639.63
2022-12-05T07:41:46.177Z,100639.50
2022-12-05T07:44:36.640Z,100642.06
2022-12-05T07:47:23.400Z,100642.94
2022-12-05T07:50:11.361Z,100640.25
2022-12-05T07:52:58.172Z,100642.81
2022-12-05T07:55:46.419Z,100646.38
2022-12-05T07:58:34.485Z,100655.06
2022-12-05T08:01:24.386Z,100647.94
2022-12-05T08:04:15.238Z,100656.63
2022-12-05T08:07:02.646Z,100646.22
2022-12-05T08:09:50.157Z,100659.34
2022-12-05T08:12:39.006Z,100654.13
2022-12-05T08:15:26.112Z,100653.22
2022-12-05T08:18:13.002Z,100668.09
2022-12-05T08:21:03.186Z,100665.59
2022-12-05T08:23:50.210Z,100665.97
2022-12-05T08:26:38.856Z,100670.25
2022-12-05T08:29:27.315Z,100671.25
2022-12-05T08:32:14.498Z,100671.97
2022-12-05T08:35:01.481Z,100678.91
2022-12-05T08:37:48.617Z,100679.56
2022-12-05T08:40:35.442Z,100683.91
2022-12-05T08:43:22.661Z,100691.63
2022-12-05T08:46:11.534Z,100685.28
2022-12-05T08:48:58.816Z,100687.94
2022-12-05T08:51:46.115Z,100691.47
2022-12-05T08:54:33.283Z,100694.91
2022-12-05T08:57:20.385Z,100697.53
2022-12-05T09:00:09.365Z,100701.91
2022-12-05T09:02:57.513Z,100708.41
2022-12-05T09:05:44.736Z,100698.59
2022-12-05T09:08:31.551Z,100700.25
2022-12-05T09:11:21.419Z,100702.66
2022-12-05T09:14:08.539Z,100710.03
2022-12-05T09:16:55.667Z,100711.34
2022-12-05T09:19:45.142Z,100712.28
2022-12-05T09:22:32.534Z,100720.00
2022-12-05T09:25:19.685Z,100721.72
2022-12-05T09:28:06.745Z,100721.59
2022-12-05T09:30:58.945Z,100726.00
2022-12-05T09:33:46.946Z,100722.44
2022-12-05T09:36:35.393Z,100715.13
2022-12-05T09:39:22.304Z,100722.13
2022-12-05T09:42:40.063Z,100719.69
2022-12-05T09:45:35.366Z,100728.19
2022-12-05T09:48:24.414Z,100725.09
2022-12-05T09:51:12.710Z,100719.75
2022-12-05T09:54:01.121Z,100715.13
2022-12-05T09:56:51.589Z,100721.06
2022-12-05T09:59:38.319Z,100718.34
2022-12-05T10:02:42.760Z,100714.00
2022-12-05T10:05:40.056Z,100713.00
2022-12-05T10:08:33.813Z,100719.22
2022-12-05T10:11:29.828Z,100707.78
2022-12-05T10:14:26.457Z,100711.19
2022-12-05T10:17:22.254Z,100698.88
2022-12-05T10:20:16.216Z,100703.25
2022-12-05T10:23:07.752Z,100708.09
2022-12-05T10:26:00.774Z,100711.16
2022-12-05T10:28:56.395Z,100704.53
2022-12-05T10:31:46.144Z,100718.44
2022-12-05T10:34:38.496Z,100711.91
2022-12-05T10:37:25.614Z,100710.41
2022-12-05T10:40:14.262Z,100710.91
2022-12-05T10:43:01.104Z,100708.91
2022-12-05T10:45:49.732Z,100707.06
2022-12-05T10:48:38.640Z,100708.91
2022-12-05T10:51:35.671Z,100714.19
2022-12-05T10:54:27.045Z,100709.75
2022-12-05T10:57:23.935Z,100707.13
2022-12-05T11:00:14.930Z,100721.06
2022-12-05T11:03:06.246Z,100722.06
2022-12-05T11:05:54.069Z,100712.47
2022-12-05T11:09:03.653Z,100720.41
2022-12-05T11:12:01.600Z,100715.94
2022-12-05T11:14:58.554Z,100716.56
2022-12-05T11:17:45.691Z,100717.75
2022-12-05T11:20:41.283Z,100717.63
2022-12-05T11:23:29.882Z,100724.63
2022-12-05T11:26:34.618Z,100717.56
2022-12-05T11:29:36.694Z,100719.47
2022-12-05T11:32:25.389Z,100717.84
2022-12-05T11:35:24.231Z,100714.34
2022-12-05T11:38:16.982Z,100716.06
2022-12-05T11:41:27.529Z,100718.75
2022-12-05T11:44:30.301Z,100728.56
2022-12-05T11:47:32.972Z,100729.25
2022-12-05T11:50:33.973Z,100738.19
2022-12-05T11:53:41.301Z,100732.06
2022-12-05T11:56:38.400Z,100733.91
2022-12-05T11:59:45.014Z,100716.47
2022-12-05T12:02:50.433Z,100721.63
2022-12-05T12:05:42.591Z,100716.34
2022-12-05T12:08:36.041Z,100712.03
2022-12-05T12:11:32.203Z,100704.06
2022-12-05T12:14:26.654Z,100710.25
2022-12-05T12:17:22.093Z,100703.19
2022-12-05T12:20:26.996Z,100705.91
2022-12-05T12:23:29.160Z,100710.25
2022-12-05T12:26:26.104Z,100701.56
2022-12-05T12:29:26.109Z,100706.91
2022-12-05T12:32:25.284Z,100713.03
2022-12-05T12:35:29.334Z,100706.06
2022-12-05T12:38:29.931Z,100706.47
2022-12-05T12:41:33.139Z,100708.03
2022-12-05T12:44:50.863Z,100708.91
2022-12-05T12:47:51.882Z,100706.53
2022-12-05T12:50:43.952Z,100709.81
2022-12-05T12:53:51.600Z,100712.03
2022-12-05T12:56:49.041Z,100711.25
2022-12-05T13:00:02.940Z,100708.75
2022-12-05T13:02:55.408Z,100705.84
2022-12-05T13:05:47.714Z,100709.34
2022-12-05T13:08:40.471Z,100708.34
2022-12-05T13:11:32.868Z,100709.13
2022-12-05T13:14:25.181Z,100712.59
2022-12-05T13:17:18.770Z,100714.63
2022-12-05T13:20:06.848Z,100719.94
2022-12-05T13:22:55.452Z,100718.19
2022-12-05T13:25:44.845Z,100723.47
2022-12-05T13:28:35.440Z,100713.75
2022-12-05T13:31:38.374Z,100720.84
2022-12-05T13:34:47.608Z,100718.97
2022-12-05T13:37:53.453Z,100717.25
2022-12-05T13:41:08.525Z,100719.16
2022-12-05T13:44:06.224Z,100725.53
2022-12-05T13:46:55.281Z,100733.59
2022-12-05T13:49:48.878Z,100733.84
2022-12-05T13:52:44.864Z,100734.84
2022-12-05T13:55:36.437Z,100739.19
2022-12-05T13:58:45.611Z,100738.47
2022-12-05T14:01:55.629Z,100737.09
2022-12-05T14:04:51.533Z,100731.75
2022-12-05T14:07:41.104Z,100734.41
2022-12-05T14:11:10.618Z,100745.06
2022-12-05T14:14:03.943Z,100730.03
2022-12-05T14:16:53.454Z,100733.78
2022-12-05T14:20:00.794Z,100742.63
2022-12-05T14:23:03.647Z,100732.94
2022-12-05T14:26:08.675Z,100735.66
2022-12-05T14:29:07.398Z,100733.72
2022-12-05T14:32:05.633Z,100727.41
2022-12-05T14:35:02.956Z,100732.53
2022-12-05T14:37:54.155Z,100735.97
2022-12-05T14:40:43.699Z,100743.09
2022-12-05T14:43:33.385Z,100740.47
2022-12-05T14:46:26.487Z,100728.91
2022-12-05T14:49:38.154Z,100723.69
2022-12-05T14:52:30.554Z,100735.81
2022-12-05T14:55:23.527Z,100729.91
2022-12-05T14:58:19.309Z,100735.97
2022-12-05T15:01:10.077Z,100743.72
2022-12-05T15:04:07.138Z,100737.56
2022-12-05T15:06:58.652Z,100734.09
2022-12-05T15:09:56.461Z,100737.81
2022-12-05T15:12:48.107Z,100735.19
2022-12-05T15:15:38.807Z,100731.22
2022-12-05T15:18:29.985Z,100730.16
2022-12-05T15:24:14.486Z,100725.81
2022-12-05T15:27:06.073Z,100729.69
2022-12-05T15:29:56.531Z,100731.22
2022-12-05T15:32:43.655Z,100730.50
2022-12-05T15:35:33.848Z,100734.72
2022-12-05T15:38:27.707Z,100734.00
2022-12-05T15:41:18.135Z,100742.97
2022-12-05T15:44:07.032Z,100742.44
2022-12-05T15:46:54.673Z,100741.53
2022-12-05T15:49:41.893Z,100738.59
2022-12-05T15:52:38.925Z,100740.25
2022-12-05T15:55:31.651Z,100739.53
2022-12-05T15:58:24.728Z,100740.38
2022-12-05T16:01:16.515Z,100748.44
2022-12-05T16:04:07.935Z,100743.34
2022-12-05T16:06:57.118Z,100740.84
2022-12-05T16:09:47.372Z,100734.78
2022-12-05T16:12:38.819Z,100734.09
2022-12-05T16:15:27.978Z,100740.59
2022-12-05T16:18:27.892Z,100746.03
2022-12-05T16:21:34.434Z,100745.37
2022-12-05T16:24:29.932Z,100735.09
2022-12-05T16:27:19.198Z,100731.97
2022-12-05T16:30:18.844Z,100733.03
2022-12-05T16:33:08.832Z,100735.87
2022-12-05T16:35:57.062Z,100738.87
2022-12-05T16:38:45.825Z,100748.78
2022-12-05T16:41:40.228Z,100742.22
2022-12-05T16:45:03.755Z,100740.00
2022-12-05T16:47:58.218Z,100741.06
2022-12-05T16:50:45.932Z,100745.69
2022-12-05T16:53:39.498Z,100742.28
2022-12-05T16:56:38.294Z,100746.84
2022-12-05T16:59:33.271Z,100758.87
2022-12-05T17:02:21.123Z,100747.78
2022-12-05T17:05:17.538Z,100755.72
2022-12-05T17:08:21.293Z,100761.06
2022-12-05T17:11:13.943Z,100763.91
2022-12-05T17:14:01.073Z,100757.31
2022-12-05T17:16:48.468Z,100756.47
2022-12-05T17:19:35.523Z,100762.63
2022-12-05T17:22:22.728Z,100762.72
2022-12-05T17:25:21.320Z,100763.03
2022-12-05T17:28:09.567Z,100758.69
2022-12-05T17:30:56.395Z,100764.88
2022-12-05T17:33:43.322Z,100764.09
2022-12-05T17:36:30.241Z,100767.62
2022-12-05T17:39:16.916Z,100771.31
2022-12-05T17:42:03.831Z,100766.97
2022-12-05T17:44:51.962Z,100767.03
2022-12-05T17:47:39.178Z,100769.66
2022-12-05T17:50:27.119Z,100776.66
2022-12-05T17:53:16.450Z,100775.72
2022-12-05T17:56:03.292Z,100773.09
2022-12-05T17:58:50.639Z,100780.09
2022-12-05T18:01:38.987Z,100783.59
2022-12-05T18:04:26.395Z,100784.44
2022-12-05T18:07:13.412Z,100784.34
2022-12-05T18:10:00.632Z,100786.06
2022-12-05T18:12:48.057Z,100788.56
2022-12-05T18:15:40.938Z,100793.78
2022-12-05T18:18:31.017Z,100788.31
2022-12-05T18:21:18.436Z,100797.84
2022-12-05T18:24:05.445Z,100797.84
2022-12-05T18:26:52.550Z,100800.28
2022-12-05T18:29:39.383Z,100799.25
2022-12-05T18:32:26.913Z,100801.78
2022-12-05T18:35:14.893Z,100800.88
2022-12-05T18:38:03.235Z,100798.41
2022-12-05T18:40:51.741Z,100801.69
2022-12-05T18:43:40.338Z,100801.50
2022-12-05T18:46:34.027Z,100806.69
2022-12-05T18:49:31.173Z,100813.53
2022-12-05T18:52:36.385Z,100805.56
2022-12-05T18:55:43.631Z,100807.22
2022-12-05T18:58:44.622Z,100808.84
2022-12-05T19:01:33.792Z,100812.34
2022-12-05T19:04:22.288Z,100810.56
2022-12-05T19:07:09.427Z,100810.50
2022-12-05T19:09:57.741Z,100815.56
2022-12-05T19:12:44.925Z,100811.09
2022-12-05T19:15:31.312Z,100804.78
2022-12-05T19:18:18.570Z,100806.41
2022-12-05T19:21:05.298Z,100805.50
2022-12-05T19:23:52.959Z,100801.03
2022-12-05T19:26:41.131Z,100812.31
2022-12-05T19:29:28.200Z,100806.94
2022-12-05T19:32:16.184Z,100815.63
2022-12-05T19:35:03.451Z,100814.78
2022-12-05T19:37:50.351Z,100807.78
2022-12-05T19:40:37.727Z,100815.63
2022-12-05T19:43:26.165Z,100814.66
2022-12-05T19:46:15.259Z,100816.41
2022-12-05T19:49:04.477Z,100819.75
2022-12-05T19:51:52.549Z,100817.84
2022-12-05T19:54:39.218Z,100829.25
2022-12-05T19:57:31.052Z,100826.03
2022-12-05T20:00:19.921Z,100825.31
2022-12-05T20:03:12.033Z,100823.72
2022-12-05T20:06:00.077Z,100823.81
2022-12-05T20:08:48.428Z,100828.41
2022-12-05T20:11:35.849Z,100824.91
2022-12-05T20:14:24.413Z,100831.97
2022-12-05T20:17:13.028Z,100821.41
2022-12-05T20:20:01.268Z,100825.72
2022-12-05T20:22:47.926Z,100818.53
2022-12-05T20:25:36.891Z,100827.16
2022-12-05T20:28:23.797Z,100827.88
2022-12-05T20:31:12.794Z,100819.91
2022-12-05T20:34:00.907Z,100817.97
2022-12-05T20:36:48.012Z,100819.56
2022-12-05T20:39:34.924Z,100812.38
2022-12-05T20:42:22.228Z,100803.53
2022-12-05T20:45:10.092Z,100805.25
2022-12-05T20:47:57.184Z,100803.53
2022-12-05T20:50:45.344Z,100798.25
2022-12-05T20:53:35.418Z,100803.63
2022-12-05T20:56:25.261Z,100797.62
2022-12-05T20:59:14.489Z,100796.84
2022-12-05T21:02:01.245Z,100794.31
2022-12-05T21:04:48.621Z,100799.59
2022-12-05T21:07:37.088Z,100800.31
2022-12-05T21:10:24.300Z,100800.19
2022-12-05T21:13:11.001Z,100798.31
2022-12-05T21:15:58.176Z,100789.44
2022-12-05T21:18:45.402Z,100792.87
2022-12-05T21:21:34.251Z,100797.16
2022-12-05T21:24:23.256Z,100790.22
2022-12-05T21:27:10.459Z,100787.72
2022-12-05T21:29:57.593Z,100788.56
2022-12-05T21:32:45.198Z,100793.72
2022-12-05T21:35:32.549Z,100786.66
2022-12-05T21:38:19.353Z,100783.13
2022-12-05T21:41:07.992Z,100778.63
2022-12-05T21:43:56.013Z,100772.47
2022-12-05T21:46:42.950Z,100782.87
2022-12-05T21:49:30.121Z,100785.53
2022-12-05T21:52:16.981Z,100779.31
2022-12-05T21:55:04.590Z,100778.34
2022-12-05T21:57:52.483Z,100781.84
2022-12-05T22:00:40.496Z,100778.28
2022-12-05T22:03:28.113Z,100783.44
2022-12-05T22:06:16.263Z,100778.03
2022-12-05T22:09:03.795Z,100783.09
2022-12-05T22:11:50.520Z,100775.06
2022-12-05T22:14:38.826Z,100779.44
2022-12-05T22:17:25.924Z,100773.16
2022-12-05T22:20:13.301Z,100772.19
2022-12-05T22:23:00.361Z,100772.19
2022-12-05T22:25:56.670Z,100770.34
2022-12-05T22:28:43.767Z,100773.09
2022-12-05T22:31:32.333Z,100768.63
2022-12-05T22:34:19.154Z,100770.28
2022-12-05T22:39:53.679Z,100769.50
2022-12-05T22:42:40.785Z,100756.38
2022-12-05T22:45:27.577Z,100766.94
2022-12-05T22:48:16.118Z,100765.87
2022-12-05T22:51:03.870Z,100756.97
2022-12-05T22:53:51.889Z,100759.44
2022-12-05T22:56:38.948Z,100757.44
2022-12-05T22:59:26.493Z,100755.59
2022-12-05T23:02:16.369Z,100753.88
2022-12-05T23:05:05.602Z,100750.47
2022-12-05T23:07:52.789Z,100754.03
2022-12-05T23:10:40.575Z,100743.59
2022-12-05T23:13:28.023Z,100741.91
2022-12-05T23:16:16.591Z,100743.53
2022-12-05T23:19:06.321Z,100744.25
2022-12-05T23:21:55.302Z,100736.22
2022-12-05T23:24:42.317Z,100740.53
2022-12-05T23:27:29.794Z,100736.22
2022-12-05T23:30:17.062Z,100734.50
2022-12-05T23:33:04.492Z,100733.78
2022-12-05T23:35:54.598Z,100731.13
2022-12-05T23:38:46.210Z,100721.50
2022-12-05T23:41:33.420Z,100721.37
2022-12-05T23:44:20.661Z,100720.53
2022-12-05T23:47:07.715Z,100716.09
2022-12-05T23:49:55.718Z,100719.59
2022-12-05T23:52:42.913Z,100718.66
2022-12-05T23:55:36.477Z,100716.00
2022-12-05T23:58:23.471Z,100710.66
